createdAt,value
2022-10-30T00:00:41.883Z,1.08
2022-10-30T00:03:16.016Z,1.00
2022-10-30T00:05:44.598Z,0.50
2022-10-30T00:08:13.295Z,0.93
2022-10-30T00:10:42.755Z,1.30
2022-10-30T00:13:10.882Z,1.20
2022-10-30T00:15:38.405Z,1.30
2022-10-30T00:18:05.402Z,0.90
2022-10-30T00:20:32.479Z,0.80
2022-10-30T00:22:59.741Z,1.10
2022-10-30T00:25:27.145Z,0.82
2022-10-30T00:27:54.171Z,1.92
2022-10-30T00:30:21.017Z,1.05
2022-10-30T00:32:47.865Z,1.20
2022-10-30T00:35:14.771Z,1.02
2022-10-30T00:37:41.779Z,1.00
2022-10-30T00:40:15.702Z,1.27
2022-10-30T00:42:42.907Z,1.00
2022-10-30T00:45:18.277Z,1.38
2022-10-30T00:47:46.940Z,1.13
2022-10-30T00:53:05.808Z,1.15
2022-10-30T00:55:38.132Z,1.10
2022-10-30T00:58:09.611Z,1.20
2022-10-30T01:00:39.223Z,1.48
2022-10-30T01:03:06.405Z,1.55
2022-10-30T01:05:34.558Z,1.38
2022-10-30T01:08:03.662Z,1.20
2022-10-30T01:10:30.704Z,1.17
2022-10-30T01:12:59.678Z,0.93
2022-10-30T01:15:41.569Z,1.17
2022-10-30T01:18:27.634Z,1.60
2022-10-30T01:20:54.436Z,1.23
2022-10-30T01:23:39.470Z,1.52
2022-10-30T01:26:26.454Z,1.20
2022-10-30T01:29:14.802Z,1.42
2022-10-30T01:31:51.192Z,1.38
2022-10-30T01:37:22.736Z,1.58
2022-10-30T01:39:49.608Z,1.40
2022-10-30T01:42:54.612Z,1.40
2022-10-30T01:45:55.469Z,1.10
2022-10-30T01:48:55.934Z,1.33
2022-10-30T01:51:39.450Z,1.52
2022-10-30T01:54:35.653Z,1.10
2022-10-30T01:57:11.819Z,1.10
2022-10-30T02:00:01.961Z,1.20
2022-10-30T02:02:29.864Z,1.60
2022-10-30T02:04:57.217Z,1.08
2022-10-30T02:07:24.169Z,0.95
2022-10-30T02:09:57.324Z,1.50
2022-10-30T02:12:24.705Z,1.15
2022-10-30T02:14:55.166Z,1.98
2022-10-30T02:17:22.859Z,1.63
2022-10-30T02:19:49.878Z,0.93
2022-10-30T02:22:18.028Z,1.33
2022-10-30T02:24:45.525Z,0.98
2022-10-30T02:27:12.417Z,1.10
2022-10-30T02:29:39.341Z,1.40
2022-10-30T02:32:06.187Z,1.33
2022-10-30T02:34:32.906Z,1.10
2022-10-30T02:36:59.697Z,1.00
2022-10-30T02:39:26.498Z,1.10
2022-10-30T02:41:53.433Z,1.50
2022-10-30T02:44:20.224Z,1.40
2022-10-30T02:46:46.818Z,1.77
2022-10-30T02:49:13.731Z,1.50
2022-10-30T02:51:40.660Z,1.63
2022-10-30T02:54:07.583Z,2.33
2022-10-30T02:56:37.326Z,1.55
2022-10-30T02:59:04.343Z,1.83
2022-10-30T03:01:31.377Z,1.40
2022-10-30T03:03:58.226Z,2.80
2022-10-30T03:06:25.414Z,2.00
2022-10-30T03:08:52.199Z,2.30
2022-10-30T03:11:20.822Z,2.40
2022-10-30T03:13:49.098Z,2.30
2022-10-30T03:16:22.822Z,1.83
2022-10-30T03:18:50.604Z,1.98
2022-10-30T03:21:21.202Z,1.52
2022-10-30T03:23:48.136Z,1.70
2022-10-30T03:26:14.908Z,1.92
2022-10-30T03:28:41.815Z,1.63
2022-10-30T03:31:14.278Z,2.78
2022-10-30T03:33:42.027Z,2.20
2022-10-30T03:36:10.344Z,2.53
2022-10-30T03:38:37.669Z,2.30
2022-10-30T03:41:05.417Z,2.10
2022-10-30T03:43:32.525Z,2.20
2022-10-30T03:46:01.538Z,3.30
2022-10-30T03:48:29.621Z,2.70
2022-10-30T03:50:58.317Z,3.10
2022-10-30T03:53:26.541Z,3.40
2022-10-30T03:55:58.375Z,3.70
2022-10-30T03:58:25.721Z,3.28
2022-10-30T04:00:52.995Z,3.67
2022-10-30T04:03:20.143Z,3.25
2022-10-30T04:05:51.185Z,3.10
2022-10-30T04:08:18.471Z,4.20
2022-10-30T04:10:46.829Z,2.78
2022-10-30T04:13:16.197Z,2.92
2022-10-30T04:15:43.274Z,3.92
2022-10-30T04:18:15.111Z,3.20
2022-10-30T04:20:43.277Z,3.20
2022-10-30T04:23:16.591Z,2.97
2022-10-30T04:25:43.589Z,3.10
2022-10-30T04:28:11.235Z,3.67
2022-10-30T04:30:39.575Z,3.65
2022-10-30T04:33:10.429Z,3.50
2022-10-30T04:35:38.571Z,3.33
2022-10-30T04:38:16.202Z,2.80
2022-10-30T04:40:44.006Z,3.10
2022-10-30T04:43:12.068Z,3.13
2022-10-30T04:45:40.047Z,2.88
2022-10-30T04:48:14.322Z,2.67
2022-10-30T04:50:41.306Z,3.58
2022-10-30T04:53:18.658Z,2.75
2022-10-30T04:55:45.837Z,2.67
2022-10-30T04:58:13.631Z,2.60
2022-10-30T05:00:41.053Z,3.00
2022-10-30T05:03:08.036Z,2.85
2022-10-30T05:05:35.012Z,3.60
2022-10-30T05:08:02.243Z,2.67
2022-10-30T05:10:29.369Z,2.80
2022-10-30T05:12:59.181Z,2.42
2022-10-30T05:15:26.068Z,3.20
2022-10-30T05:17:56.511Z,2.90
2022-10-30T05:20:23.633Z,2.70
2022-10-30T05:22:58.072Z,2.60
2022-10-30T05:25:25.962Z,2.55
2022-10-30T05:28:02.266Z,2.72
2022-10-30T05:30:30.994Z,2.60
2022-10-30T05:33:05.554Z,2.60
2022-10-30T05:35:34.171Z,2.53
2022-10-30T05:38:03.648Z,3.10
2022-10-30T05:40:30.569Z,3.15
2022-10-30T05:42:57.795Z,2.72
2022-10-30T05:45:25.142Z,2.63
2022-10-30T05:48:00.724Z,2.75
2022-10-30T05:50:28.826Z,2.38
2022-10-30T05:53:04.334Z,2.30
2022-10-30T05:55:31.844Z,2.88
2022-10-30T05:58:03.287Z,2.38
2022-10-30T06:00:33.196Z,2.67
2022-10-30T06:03:05.374Z,2.80
2022-10-30T06:05:34.526Z,2.85
2022-10-30T06:08:02.121Z,2.97
2022-10-30T06:10:29.533Z,2.80
2022-10-30T06:12:58.472Z,2.85
2022-10-30T06:15:26.121Z,3.55
2022-10-30T06:17:53.262Z,3.10
2022-10-30T06:20:22.508Z,2.47
2022-10-30T06:23:04.610Z,3.03
2022-10-30T06:25:39.583Z,2.50
2022-10-30T06:28:09.534Z,2.97
2022-10-30T06:30:36.245Z,3.00
2022-10-30T06:33:04.982Z,2.78
2022-10-30T06:35:31.943Z,2.78
2022-10-30T06:38:01.366Z,2.92
2022-10-30T06:40:30.245Z,2.60
2022-10-30T06:42:58.315Z,2.83
2022-10-30T06:45:25.922Z,2.72
2022-10-30T06:47:52.733Z,3.67
2022-10-30T06:50:22.298Z,2.78
2022-10-30T06:52:49.686Z,3.05
2022-10-30T06:55:16.992Z,2.80
2022-10-30T06:57:46.084Z,3.10
2022-10-30T07:00:13.483Z,2.42
2022-10-30T07:02:40.258Z,2.50
2022-10-30T07:05:07.736Z,2.33
2022-10-30T07:07:34.453Z,2.63
2022-10-30T07:10:01.349Z,2.03
2022-10-30T07:12:28.262Z,2.08
2022-10-30T07:14:55.194Z,2.30
2022-10-30T07:17:22.118Z,1.90
2022-10-30T07:19:49.061Z,2.15
2022-10-30T07:22:17.281Z,1.92
2022-10-30T07:24:44.180Z,2.28
2022-10-30T07:27:23.577Z,1.90
2022-10-30T07:29:50.534Z,1.17
2022-10-30T07:32:17.364Z,1.67
2022-10-30T07:34:44.197Z,1.08
2022-10-30T07:37:11.071Z,0.90
2022-10-30T07:39:37.849Z,1.00
2022-10-30T07:42:04.730Z,0.90
2022-10-30T07:44:31.572Z,0.88
2022-10-30T07:46:58.409Z,1.15
2022-10-30T07:49:25.292Z,0.90
2022-10-30T07:51:54.008Z,0.82
2022-10-30T07:54:20.718Z,0.70
2022-10-30T07:56:49.941Z,0.70
2022-10-30T07:59:16.833Z,0.93
2022-10-30T08:01:43.612Z,0.70
2022-10-30T08:04:11.527Z,0.90
2022-10-30T08:06:38.387Z,0.60
2022-10-30T08:09:05.545Z,0.50
2022-10-30T08:11:32.326Z,0.50
2022-10-30T08:13:59.435Z,0.65
2022-10-30T08:16:26.397Z,0.90
2022-10-30T08:18:53.601Z,0.77
2022-10-30T08:21:21.044Z,0.63
2022-10-30T08:23:48.021Z,0.77
2022-10-30T08:26:14.921Z,0.73
2022-10-30T08:28:41.764Z,0.82
2022-10-30T08:31:08.740Z,0.43
2022-10-30T08:33:35.634Z,0.68
2022-10-30T08:36:04.733Z,0.65
2022-10-30T08:38:31.658Z,0.70
2022-10-30T08:40:58.606Z,1.00
2022-10-30T08:43:26.827Z,0.70
2022-10-30T08:45:53.656Z,0.82
2022-10-30T08:48:20.562Z,0.57
2022-10-30T08:50:47.271Z,1.27
2022-10-30T08:53:18.000Z,0.43
2022-10-30T08:55:44.944Z,0.88
2022-10-30T08:58:11.856Z,0.80
2022-10-30T09:00:39.110Z,0.90
2022-10-30T09:03:07.753Z,0.95
2022-10-30T09:05:34.648Z,0.70
2022-10-30T09:08:01.999Z,1.30
2022-10-30T09:10:32.010Z,0.70
2022-10-30T09:13:00.192Z,1.10
2022-10-30T09:15:27.235Z,1.13
2022-10-30T09:18:04.679Z,1.10
2022-10-30T09:20:32.150Z,0.68
2022-10-30T09:22:59.342Z,1.00
2022-10-30T09:25:26.631Z,0.65
2022-10-30T09:27:53.628Z,0.70
2022-10-30T09:30:21.157Z,0.93
2022-10-30T09:33:02.887Z,0.80
2022-10-30T09:35:30.833Z,0.90
2022-10-30T09:37:57.945Z,0.73
2022-10-30T09:40:53.915Z,0.70
2022-10-30T09:43:39.738Z,1.00
2022-10-30T09:46:26.440Z,0.70
2022-10-30T09:49:02.406Z,0.82
2022-10-30T09:51:50.909Z,0.68
2022-10-30T09:54:23.510Z,0.90
2022-10-30T09:57:35.286Z,0.68
2022-10-30T10:00:19.679Z,0.80
2022-10-30T10:03:07.842Z,0.88
2022-10-30T10:05:57.623Z,1.05
2022-10-30T10:08:35.249Z,0.43
2022-10-30T10:11:17.158Z,0.45
2022-10-30T10:14:05.007Z,1.20
2022-10-30T10:16:36.831Z,0.93
2022-10-30T10:19:16.013Z,0.70
2022-10-30T10:21:58.001Z,0.77
2022-10-30T10:24:30.260Z,1.08
2022-10-30T10:27:13.224Z,0.40
2022-10-30T10:30:04.493Z,0.68
2022-10-30T10:32:58.764Z,0.88
2022-10-30T10:35:54.526Z,1.35
2022-10-30T10:38:40.394Z,0.75
2022-10-30T10:41:28.357Z,0.50
2022-10-30T10:44:32.559Z,0.52
2022-10-30T10:47:16.641Z,0.93
2022-10-30T10:49:58.301Z,0.68
2022-10-30T10:52:43.521Z,0.65
2022-10-30T10:55:19.740Z,0.75
2022-10-30T10:57:48.375Z,0.90
2022-10-30T11:00:17.174Z,0.50
2022-10-30T11:03:06.042Z,0.70
2022-10-30T11:06:15.064Z,0.57
2022-10-30T11:08:42.012Z,0.70
2022-10-30T11:11:08.943Z,0.75
2022-10-30T11:13:38.855Z,0.90
2022-10-30T11:16:14.743Z,0.63
2022-10-30T11:18:43.648Z,0.77
2022-10-30T11:21:16.747Z,0.77
2022-10-30T11:23:46.709Z,0.80
2022-10-30T11:26:19.391Z,0.50
2022-10-30T11:28:46.122Z,0.95
2022-10-30T11:31:35.120Z,1.90
2022-10-30T11:34:19.348Z,0.55
2022-10-30T11:36:48.240Z,0.93
2022-10-30T11:39:20.974Z,0.70
2022-10-30T11:41:59.112Z,0.73
2022-10-30T11:44:31.873Z,0.77
2022-10-30T11:46:59.477Z,0.70
2022-10-30T11:49:41.623Z,0.90
2022-10-30T11:52:09.470Z,0.60
2022-10-30T11:54:41.935Z,0.85
2022-10-30T11:57:35.831Z,0.55
2022-10-30T12:00:06.957Z,0.57
2022-10-30T12:02:42.963Z,0.65
2022-10-30T12:05:34.367Z,0.50
2022-10-30T12:08:07.084Z,0.55
2022-10-30T12:11:01.953Z,1.15
2022-10-30T12:13:36.657Z,0.43
2022-10-30T12:16:19.808Z,0.43
2022-10-30T12:18:58.437Z,0.60
2022-10-30T12:21:28.130Z,1.02
2022-10-30T12:24:07.066Z,0.70
2022-10-30T12:26:36.013Z,0.40
2022-10-30T12:29:06.594Z,0.68
2022-10-30T12:31:41.235Z,0.88
2022-10-30T12:34:28.285Z,0.60
2022-10-30T12:37:24.302Z,0.98
2022-10-30T12:42:26.456Z,0.60
2022-10-30T12:44:56.407Z,0.70
2022-10-30T12:47:37.286Z,0.88
2022-10-30T12:50:31.323Z,0.73
2022-10-30T12:53:40.104Z,0.40
2022-10-30T12:56:17.730Z,0.75
2022-10-30T12:58:47.632Z,1.17
2022-10-30T13:01:32.722Z,0.85
2022-10-30T13:04:07.615Z,1.00
2022-10-30T13:06:45.112Z,0.68
2022-10-30T13:09:38.115Z,0.60
2022-10-30T13:12:10.759Z,0.60
2022-10-30T13:14:44.839Z,0.85
2022-10-30T13:17:20.419Z,0.90
2022-10-30T13:19:48.187Z,0.57
2022-10-30T13:22:28.421Z,0.80
2022-10-30T13:25:23.094Z,1.42
2022-10-30T13:28:01.160Z,1.20
2022-10-30T13:30:35.045Z,1.20
2022-10-30T13:33:22.298Z,0.73
2022-10-30T13:36:10.415Z,0.75
2022-10-30T13:38:55.201Z,0.63
2022-10-30T13:41:31.368Z,1.80
2022-10-30T13:44:34.461Z,0.90
2022-10-30T13:47:19.650Z,5.70
2022-10-30T13:50:08.021Z,6.68
2022-10-30T13:52:37.972Z,1.50
2022-10-30T13:55:18.261Z,2.53
2022-10-30T13:58:11.329Z,1.73
2022-10-30T14:01:11.214Z,1.00
2022-10-30T14:04:26.456Z,1.63
2022-10-30T14:07:25.498Z,0.90
2022-10-30T14:10:05.791Z,0.98
2022-10-30T14:12:57.979Z,1.05
2022-10-30T14:15:33.248Z,1.02
2022-10-30T14:18:12.240Z,1.48
2022-10-30T14:20:42.945Z,0.70
2022-10-30T14:23:19.973Z,1.48
2022-10-30T14:26:04.886Z,1.05
2022-10-30T14:28:34.678Z,0.88
2022-10-30T14:31:04.669Z,1.58
2022-10-30T14:33:41.048Z,2.60
2022-10-30T14:36:24.844Z,3.80
2022-10-30T14:39:22.283Z,1.75
2022-10-30T14:41:58.410Z,2.08
2022-10-30T14:44:55.781Z,0.80
2022-10-30T14:47:47.228Z,1.13
2022-10-30T14:50:17.605Z,1.05
2022-10-30T14:53:12.127Z,0.75
2022-10-30T14:55:55.863Z,1.40
2022-10-30T14:58:26.344Z,1.40
2022-10-30T15:01:25.085Z,0.90
2022-10-30T15:04:06.742Z,0.95
2022-10-30T15:17:16.454Z,1.20
2022-10-30T15:19:43.325Z,1.48
2022-10-30T15:22:18.179Z,1.30
2022-10-30T15:24:46.004Z,1.13
2022-10-30T15:27:21.410Z,1.60
2022-10-30T15:29:59.609Z,1.20
2022-10-30T15:32:26.627Z,1.42
2022-10-30T15:35:05.281Z,2.08
2022-10-30T15:37:32.438Z,1.80
2022-10-30T15:40:14.179Z,2.65
2022-10-30T15:42:41.642Z,2.55
2022-10-30T15:45:32.762Z,2.78
2022-10-30T15:48:06.164Z,2.53
2022-10-30T15:50:34.774Z,4.57
2022-10-30T15:53:02.196Z,1.83
2022-10-30T15:55:32.134Z,1.75
2022-10-30T15:58:13.003Z,2.80
2022-10-30T16:00:40.308Z,3.00
2022-10-30T16:03:13.201Z,2.88
2022-10-30T16:05:40.045Z,2.95
2022-10-30T16:08:22.115Z,2.60
2022-10-30T16:10:50.027Z,3.55
2022-10-30T16:13:19.274Z,3.03
2022-10-30T16:15:50.428Z,3.22
2022-10-30T16:18:17.593Z,3.40
2022-10-30T16:20:53.812Z,3.38
2022-10-30T16:23:21.626Z,2.83
2022-10-30T16:25:57.465Z,3.22
2022-10-30T16:28:30.824Z,3.10
2022-10-30T16:31:02.115Z,3.38
2022-10-30T16:33:32.246Z,3.28
2022-10-30T16:36:02.335Z,3.30
2022-10-30T16:38:37.123Z,4.13
2022-10-30T16:41:14.124Z,3.00
2022-10-30T16:43:44.712Z,3.30
2022-10-30T16:46:14.588Z,2.75
2022-10-30T16:48:51.936Z,2.90
2022-10-30T16:51:19.240Z,3.15
2022-10-30T16:53:51.724Z,3.05
2022-10-30T16:56:24.952Z,3.38
2022-10-30T16:58:53.873Z,3.47
2022-10-30T17:01:26.580Z,4.15
2022-10-30T17:03:55.924Z,4.43
2022-10-30T17:06:39.991Z,4.20
2022-10-30T17:09:10.106Z,3.95
2022-10-30T17:11:42.176Z,2.90
2022-10-30T17:14:22.689Z,2.90
2022-10-30T17:16:54.272Z,3.58
2022-10-30T17:19:30.288Z,3.70
2022-10-30T17:22:13.675Z,2.80
2022-10-30T17:24:40.556Z,3.35
2022-10-30T17:27:28.473Z,3.65
2022-10-30T17:29:55.815Z,2.97
2022-10-30T17:32:44.923Z,4.03
2022-10-30T17:35:17.119Z,3.40
2022-10-30T17:37:44.213Z,3.70
2022-10-30T17:40:14.943Z,4.93
2022-10-30T17:42:42.157Z,5.72
2022-10-30T17:45:21.139Z,4.70
2022-10-30T17:47:50.650Z,5.03
2022-10-30T17:50:17.495Z,4.90
2022-10-30T17:52:44.233Z,3.53
2022-10-30T17:55:28.522Z,3.40
2022-10-30T17:57:55.509Z,2.60
2022-10-30T18:00:22.505Z,3.03
2022-10-30T18:02:49.893Z,2.50
2022-10-30T18:05:20.141Z,1.90
2022-10-30T18:07:53.857Z,2.33
2022-10-30T18:10:20.705Z,2.25
2022-10-30T18:12:47.519Z,2.33
2022-10-30T18:15:33.279Z,1.83
2022-10-30T18:18:00.250Z,1.85
2022-10-30T18:20:28.164Z,1.98
2022-10-30T18:22:55.780Z,3.00
2022-10-30T18:25:30.897Z,1.80
2022-10-30T18:27:57.969Z,2.03
2022-10-30T18:30:24.919Z,1.90
2022-10-30T18:32:51.921Z,2.25
2022-10-30T18:35:21.755Z,2.30
2022-10-30T18:37:48.548Z,2.03
2022-10-30T18:40:21.775Z,1.92
2022-10-30T18:42:50.055Z,2.13
2022-10-30T18:45:29.689Z,2.40
2022-10-30T18:47:57.148Z,2.60
2022-10-30T18:50:24.768Z,2.85
2022-10-30T18:52:51.737Z,3.00
2022-10-30T18:55:22.767Z,3.20
2022-10-30T18:57:51.250Z,3.35
2022-10-30T19:00:25.863Z,3.10
2022-10-30T19:02:53.489Z,3.50
2022-10-30T19:05:35.996Z,2.90
2022-10-30T19:08:04.819Z,3.13
2022-10-30T19:10:35.315Z,2.47
2022-10-30T19:13:20.301Z,2.90
2022-10-30T19:15:58.983Z,2.50
2022-10-30T19:18:28.613Z,2.60
2022-10-30T19:21:04.393Z,3.20
2022-10-30T19:23:32.781Z,2.78
2022-10-30T19:25:59.812Z,4.07
2022-10-30T19:28:26.747Z,3.00
2022-10-30T19:30:55.008Z,3.40
2022-10-30T19:33:23.817Z,6.55
2022-10-30T19:36:02.008Z,5.10
2022-10-30T19:38:29.089Z,5.55
2022-10-30T19:40:56.006Z,6.70
2022-10-30T19:43:23.789Z,6.93
2022-10-30T19:45:55.702Z,4.18
2022-10-30T19:51:11.650Z,4.93
2022-10-30T19:53:39.266Z,4.10
2022-10-30T19:56:06.533Z,3.60
2022-10-30T19:58:33.377Z,3.25
2022-10-30T20:01:00.201Z,2.90
2022-10-30T20:03:27.154Z,2.58
2022-10-30T20:05:55.822Z,2.75
2022-10-30T20:08:24.874Z,2.65
2022-10-30T20:10:57.825Z,2.65
2022-10-30T20:13:26.608Z,2.78
2022-10-30T20:15:54.886Z,2.70
2022-10-30T20:18:37.518Z,3.08
2022-10-30T20:21:08.625Z,4.60
2022-10-30T20:23:36.316Z,4.35
2022-10-30T20:26:06.040Z,3.47
2022-10-30T20:28:39.209Z,3.35
2022-10-30T20:31:07.347Z,3.25
2022-10-30T20:33:34.596Z,3.10
2022-10-30T20:36:01.221Z,2.75
2022-10-30T20:38:30.642Z,3.33
2022-10-30T20:40:58.902Z,2.53
2022-10-30T20:43:30.391Z,2.13
2022-10-30T20:45:58.925Z,2.70
2022-10-30T20:48:26.591Z,2.33
2022-10-30T20:50:57.373Z,2.30
2022-10-30T20:53:24.640Z,2.60
2022-10-30T20:55:51.380Z,1.88
2022-10-30T20:58:18.410Z,2.22
2022-10-30T21:00:45.419Z,2.30
2022-10-30T21:03:14.851Z,2.50
2022-10-30T21:05:45.032Z,2.20
2022-10-30T21:08:14.118Z,2.80
2022-10-30T21:10:41.603Z,3.08
2022-10-30T21:13:10.745Z,2.70
2022-10-30T21:15:42.980Z,2.65
2022-10-30T21:18:11.681Z,2.70
2022-10-30T21:20:39.345Z,2.38
2022-10-30T21:23:06.511Z,2.72
2022-10-30T21:25:33.616Z,2.40
2022-10-30T21:28:01.024Z,3.17
2022-10-30T21:30:28.555Z,2.40
2022-10-30T21:32:55.571Z,2.67
2022-10-30T21:35:22.490Z,3.33
2022-10-30T21:37:49.465Z,2.20
2022-10-30T21:40:16.517Z,2.00
2022-10-30T21:42:43.526Z,2.20
2022-10-30T21:45:10.532Z,2.10
2022-10-30T21:47:37.254Z,2.45
2022-10-30T21:50:07.628Z,2.80
2022-10-30T21:52:37.988Z,2.58
2022-10-30T21:55:05.358Z,2.13
2022-10-30T21:57:32.201Z,2.63
2022-10-30T22:00:01.761Z,2.60
2022-10-30T22:02:33.177Z,2.97
2022-10-30T22:05:00.046Z,2.42
2022-10-30T22:07:26.870Z,3.03
2022-10-30T22:09:54.240Z,2.83
2022-10-30T22:12:21.049Z,3.00
2022-10-30T22:14:47.953Z,2.33
2022-10-30T22:17:14.834Z,2.63
2022-10-30T22:19:41.813Z,2.75
2022-10-30T22:22:09.216Z,2.55
2022-10-30T22:24:36.111Z,2.88
2022-10-30T22:27:03.223Z,2.55
2022-10-30T22:29:29.966Z,2.47
2022-10-30T22:31:56.850Z,2.70
2022-10-30T22:34:23.765Z,2.70
2022-10-30T22:36:50.696Z,2.88
2022-10-30T22:39:17.689Z,3.90
2022-10-30T22:41:44.470Z,3.45
2022-10-30T22:44:14.191Z,2.80
2022-10-30T22:46:41.264Z,2.60
2022-10-30T22:49:08.463Z,2.33
2022-10-30T22:51:37.677Z,2.83
2022-10-30T22:54:07.089Z,3.28
2022-10-30T22:56:36.727Z,2.42
2022-10-30T22:59:06.505Z,3.20
2022-10-30T23:01:35.946Z,2.50
2022-10-30T23:04:05.012Z,2.30
2022-10-30T23:06:33.862Z,2.53
2022-10-30T23:09:02.917Z,2.53
2022-10-30T23:11:29.834Z,3.38
2022-10-30T23:13:57.238Z,2.67
2022-10-30T23:16:25.530Z,2.30
2022-10-30T23:18:55.046Z,2.58
2022-10-30T23:21:23.428Z,2.30
2022-10-30T23:23:50.358Z,2.75
2022-10-30T23:26:43.365Z,2.20
2022-10-30T23:29:10.252Z,2.58
2022-10-30T23:31:42.136Z,2.45
2022-10-30T23:34:11.773Z,2.38
2022-10-30T23:36:39.273Z,2.28
2022-10-30T23:39:09.660Z,2.10
2022-10-30T23:41:36.622Z,2.40
2022-10-30T23:44:06.419Z,2.70
2022-10-30T23:46:35.452Z,2.88
2022-10-30T23:49:02.988Z,2.60
2022-10-30T23:51:30.245Z,2.95
2022-10-30T23:53:57.139Z,2.70
2022-10-30T23:56:24.535Z,3.20
2022-10-30T23:58:52.229Z,3.20
